Time;durP1;ratioP1;P1;durP2;ratioP2;P2;SDS_P1;SDS_P2;PMS_P1;PMS_P2;Temp;Humidity;BMP_temperature;BMP_pressure;BME280_temperature;BME280_humidity;BME280_pressure;Samples;Min_cycle;Max_cycle;Signal;HPM_P1;HPM_P2
2022/04/22 00:01:10;;;;;;;0.70;0.30;;;;;;;23.31;62.09;102444.41;5033596;28;20030;-68
2022/04/22 00:03:37;;;;;;;0.43;0.10;;;;;;;23.31;62.32;102438.94;5033543;28;20029;-68
2022/04/22 00:06:02;;;;;;;0.38;0.10;;;;;;;23.36;62.02;102441.19;5036036;28;20056;-68
2022/04/22 00:08:27;;;;;;;0.80;0.30;;;;;;;23.34;61.55;102437.72;5039585;28;20021;-68
2022/04/22 00:13:37;;;;;;;0.85;0.38;;;;;;;23.40;61.74;102439.84;5033403;28;20043;-68
2022/04/22 00:16:03;;;;;;;1.05;0.15;;;;;;;23.42;60.81;102440.53;5033495;28;20112;-68
2022/04/22 00:18:31;;;;;;;0.85;0.20;;;;;;;23.40;60.93;102439.84;5033490;28;20029;-68
2022/04/22 00:20:56;;;;;;;1.45;0.35;;;;;;;23.45;61.36;102442.94;5033574;28;20021;-65
2022/04/22 00:23:22;;;;;;;1.17;0.47;;;;;;;23.46;61.27;102441.91;5032970;28;20025;-68
2022/04/22 00:25:47;;;;;;;1.23;0.28;;;;;;;23.46;60.47;102441.91;5033224;28;20479;-68
2022/04/22 00:28:12;;;;;;;1.38;0.25;;;;;;;23.50;60.78;102436.94;5033099;28;20029;-68
2022/04/22 00:30:38;;;;;;;0.77;0.20;;;;;;;23.50;60.49;102437.78;5033003;28;20029;-68
2022/04/22 00:33:04;;;;;;;1.05;0.20;;;;;;;23.52;60.79;102444.00;5032981;28;20200;-68
2022/04/22 00:35:29;;;;;;;0.60;0.20;;;;;;;23.54;59.97;102433.69;5032953;28;20032;-68
2022/04/22 00:37:54;;;;;;;0.47;0.20;;;;;;;23.54;60.08;102439.19;5032959;28;20101;-68
2022/04/22 00:40:19;;;;;;;0.43;0.10;;;;;;;23.53;60.34;102439.38;5032727;28;20389;-68
2022/04/22 00:42:46;;;;;;;0.73;0.20;;;;;;;23.54;59.91;102436.44;5032846;28;20032;-68
2022/04/22 00:45:12;;;;;;;0.68;0.30;;;;;;;23.59;59.32;102424.97;5031586;28;20025;-68
2022/04/22 00:47:38;;;;;;;0.22;0.10;;;;;;;23.55;59.43;102424.44;5031525;28;20472;-68
2022/04/22 00:50:04;;;;;;;0.82;0.40;;;;;;;23.56;59.71;102425.28;5032839;28;20035;-68
2022/04/22 00:52:29;;;;;;;2.28;0.25;;;;;;;23.56;60.14;102422.56;5035889;28;20045;-67
2022/04/22 00:54:55;;;;;;;1.35;0.20;;;;;;;23.62;59.20;102424.66;5040036;28;20484;-68
2022/04/22 00:57:20;;;;;;;0.82;0.20;;;;;;;23.58;59.65;102426.88;5032392;28;20381;-68
2022/04/22 00:59:46;;;;;;;0.20;0.17;;;;;;;23.60;59.64;102422.06;5031576;28;20079;-68
2022/04/22 01:02:11;;;;;;;0.20;0.10;;;;;;;23.61;58.96;102420.19;5031160;28;20032;-68
2022/04/22 01:10:07;;;;;;;1.15;0.30;;;;;;;23.61;59.17;102423.78;5032463;28;20270;-68
2022/04/22 01:12:33;;;;;;;0.15;0.13;;;;;;;23.64;59.85;102417.94;5031295;28;20018;-66
2022/04/22 01:14:58;;;;;;;0.30;0.10;;;;;;;23.59;58.99;102414.88;5032594;28;20028;-68
2022/04/22 01:17:25;;;;;;;0.30;0.25;;;;;;;23.65;58.94;102418.81;5032256;28;20112;-67
2022/04/22 01:19:50;;;;;;;0.85;0.30;;;;;;;23.64;59.09;102415.22;5031226;28;20067;-68
2022/04/22 01:22:16;;;;;;;1.25;0.20;;;;;;;23.62;59.21;102414.53;5032296;28;20021;-69
2022/04/22 01:24:42;;;;;;;0.10;0.10;;;;;;;23.65;58.88;102416.91;5032448;28;20044;-67
2022/04/22 01:27:10;;;;;;;1.45;0.22;;;;;;;23.64;59.53;102417.09;5032343;28;20493;-68
2022/04/22 01:29:35;;;;;;;0.25;0.15;;;;;;;23.64;58.56;102406.97;5032205;28;20032;-68
2022/04/22 01:32:01;;;;;;;2.03;0.30;;;;;;;23.67;59.53;102411.25;5031292;28;20484;-68
2022/04/22 01:34:26;;;;;;;1.10;0.10;;;;;;;23.68;59.18;102412.97;5031323;28;20021;-65
2022/04/22 01:36:51;;;;;;;0.47;0.10;;;;;;;23.69;59.00;102403.75;5032097;28;20021;-65
2022/04/22 01:39:17;;;;;;;0.15;0.10;;;;;;;23.68;59.58;102397.38;5046231;28;20030;-67
2022/04/22 01:41:42;;;;;;;1.30;0.40;;;;;;;23.67;58.57;102403.88;5031996;28;20076;-67
2022/04/22 01:44:07;;;;;;;0.98;0.20;;;;;;;23.70;59.34;102408.19;5032444;28;20044;-67
2022/04/22 01:46:32;;;;;;;0.50;0.20;;;;;;;23.66;58.86;102399.41;5032042;28;20451;-67
2022/04/22 01:48:58;;;;;;;0.68;0.30;;;;;;;23.67;58.22;102403.03;5032180;28;20052;-67
2022/04/22 01:51:24;;;;;;;0.65;0.20;;;;;;;23.66;59.19;102398.56;5032003;28;20018;-67
2022/04/22 01:53:49;;;;;;;0.95;0.35;;;;;;;23.71;58.37;102401.69;5031878;28;20057;-67
2022/04/22 01:56:14;;;;;;;0.82;0.40;;;;;;;23.70;59.04;102395.31;5032038;28;20026;-67
2022/04/22 01:58:40;;;;;;;0.20;0.10;;;;;;;23.68;59.48;102391.91;5031930;28;20028;-67
2022/04/22 02:01:05;;;;;;;0.60;0.13;;;;;;;23.68;59.23;102394.66;5031807;28;20448;-65
2022/04/22 02:03:30;;;;;;;1.58;0.17;;;;;;;23.69;59.38;102393.63;5032140;28;20036;-67
2022/04/22 02:05:55;;;;;;;1.30;0.40;;;;;;;23.67;58.64;102395.63;5031909;28;20448;-68
2022/04/22 02:08:21;;;;;;;1.98;0.20;;;;;;;23.70;58.90;102398.06;5031854;28;20025;-67
2022/04/22 02:10:46;;;;;;;1.10;0.20;;;;;;;23.74;58.97;102394.97;5032020;28;20022;-67
2022/04/22 02:13:12;;;;;;;0.20;0.10;;;;;;;23.72;58.98;102391.56;5031952;28;20067;-67
2022/04/22 02:15:37;;;;;;;0.40;0.20;;;;;;;23.72;58.67;102394.31;5031783;28;20032;-67
2022/04/22 02:18:03;;;;;;;0.77;0.25;;;;;;;23.72;59.44;102384.16;5031854;28;20030;-66
2022/04/22 02:20:28;;;;;;;0.88;0.40;;;;;;;23.76;58.94;102384.69;5037295;28;20053;-67
2022/04/22 02:22:53;;;;;;;0.70;0.20;;;;;;;23.74;58.70;102387.59;5035576;28;20033;-67
2022/04/22 02:25:19;;;;;;;0.70;0.22;;;;;;;23.77;59.32;102381.75;5034071;28;20029;-66
2022/04/22 02:30:28;;;;;;;0.80;0.30;;;;;;;23.75;59.22;102385.72;5035496;28;20110;-65
2022/04/22 02:32:53;;;;;;;0.75;0.13;;;;;;;23.74;58.69;102384.00;5035254;28;20108;-67
2022/04/22 02:35:20;;;;;;;0.20;0.00;;;;;;;23.74;58.70;102389.50;5035194;28;20070;-66
2022/04/22 02:37:46;;;;;;;0.30;0.10;;;;;;;23.76;58.63;102382.78;5035236;28;20033;-67
2022/04/22 02:45:26;;;;;;;2.25;0.20;;;;;;;23.79;58.51;102389.81;5035180;28;20036;-68
2022/04/22 02:45:41;;;;;;;0.57;0.15;;;;;;;23.74;58.56;102389.50;5035286;28;20112;-67
2022/04/22 02:48:06;;;;;;;1.75;0.35;;;;;;;23.74;58.83;102390.34;5033800;28;20505;-67
2022/04/22 02:50:31;;;;;;;0.63;0.30;;;;;;;23.76;59.31;102388.28;5034929;28;20037;-68
2022/04/22 02:52:57;;;;;;;0.65;0.30;;;;;;;23.76;58.40;102388.28;5034896;28;20054;-67
2022/04/22 02:55:22;;;;;;;0.47;0.22;;;;;;;23.79;58.51;102398.06;5033467;28;20493;-68
2022/04/22 02:57:47;;;;;;;1.17;0.45;;;;;;;23.75;58.98;102391.22;5034730;28;20021;-68
2022/04/22 03:00:14;;;;;;;1.65;0.40;;;;;;;23.81;59.07;102382.28;5034739;28;20448;-67
2022/04/22 03:02:39;;;;;;;0.40;0.20;;;;;;;23.75;58.16;102322.56;5034632;28;20025;-67
2022/04/22 03:05:05;;;;;;;0.30;0.17;;;;;;;23.76;58.97;102319.63;5048092;28;20072;-67
2022/04/22 03:07:30;;;;;;;1.58;0.30;;;;;;;23.77;58.72;102336.97;5034512;28;20025;-67
2022/04/22 03:09:55;;;;;;;0.52;0.20;;;;;;;23.81;59.18;102388.63;5034570;28;20022;-67
2022/04/22 03:12:22;;;;;;;0.98;0.10;;;;;;;23.75;59.00;102364.59;5034406;28;20032;-67
2022/04/22 03:14:47;;;;;;;0.63;0.13;;;;;;;23.79;58.83;102365.97;5034667;28;20101;-67
2022/04/22 03:17:12;;;;;;;1.10;0.20;;;;;;;23.78;59.10;102368.88;5034504;28;20108;-67
2022/04/22 03:19:37;;;;;;;1.17;0.63;;;;;;;23.79;59.20;102370.59;5034362;28;20021;-68
2022/04/22 03:22:03;;;;;;;0.98;0.10;;;;;;;23.77;58.89;102367.19;5034270;28;20389;-67
2022/04/22 03:24:28;;;;;;;0.50;0.15;;;;;;;23.79;58.35;102367.84;5034310;28;20108;-67
2022/04/22 03:26:54;;;;;;;1.25;0.20;;;;;;;23.81;59.31;102369.41;5034469;28;20492;-67
2022/04/22 03:29:19;;;;;;;1.02;0.28;;;;;;;23.78;58.49;102363.41;5034152;28;20096;-67
2022/04/22 03:31:44;;;;;;;0.57;0.13;;;;;;;23.77;58.37;102364.44;5033837;28;20010;-67
2022/04/22 03:34:09;;;;;;;0.90;0.47;;;;;;;23.81;59.14;102368.53;5034124;28;20465;-68
2022/04/22 03:36:35;;;;;;;1.60;0.40;;;;;;;23.79;58.37;102354.97;5034372;28;20064;-67
2022/04/22 03:39:00;;;;;;;0.73;0.20;;;;;;;23.78;58.76;102366.16;5034186;28;20029;-68
2022/04/22 03:41:25;;;;;;;1.13;0.20;;;;;;;23.79;58.56;102354.97;5048196;28;20029;-67
2022/04/22 03:43:51;;;;;;;1.27;0.20;;;;;;;23.79;58.61;102365.13;5039079;28;20512;-67
2022/04/22 03:46:16;;;;;;;1.20;0.28;;;;;;;23.81;58.66;102374.03;5032640;28;20071;-67
2022/04/22 03:48:41;;;;;;;0.22;0.10;;;;;;;23.84;58.81;102368.19;5033735;28;20025;-65
2022/04/22 03:51:07;;;;;;;0.82;0.20;;;;;;;23.81;58.40;102368.53;5033367;28;20082;-67
2022/04/22 03:53:36;;;;;;;0.82;0.20;;;;;;;23.83;58.90;102361.00;5033629;28;20045;-67
2022/04/22 03:58:10;;;;;;;0.40;0.10;;;;;;;23.84;58.69;102362.69;5033747;28;20033;-66
2022/04/22 03:58:49;;;;;;;1.77;0.25;;;;;;;23.79;58.51;102354.97;5033625;28;20442;-68
2022/04/22 04:01:14;;;;;;;0.65;0.25;;;;;;;23.82;58.93;102375.75;5033579;28;20104;-67
2022/04/22 04:03:40;;;;;;;1.70;0.20;;;;;;;24.00;57.01;102374.53;5033711;28;20112;-66
2022/04/22 04:06:07;;;;;;;1.83;0.32;;;;;;;24.01;57.84;102376.25;5031843;28;20021;-68
2022/04/22 04:08:32;;;;;;;1.42;0.10;;;;;;;24.09;58.41;102377.31;5032539;28;20032;-68
2022/04/22 04:16:25;;;;;;;1.58;0.50;;;;;;;24.16;58.57;102373.69;5033281;28;20033;-68
2022/04/22 04:18:50;;;;;;;0.28;0.17;;;;;;;24.18;57.95;102371.59;5032993;28;20241;-67
2022/04/22 04:23:59;;;;;;;0.50;0.30;;;;;;;24.27;57.72;102362.34;5033237;28;20033;-68
2022/04/22 04:26:25;;;;;;;1.65;0.52;;;;;;;24.32;57.86;102369.22;5031723;28;20025;-67
2022/04/22 04:28:52;;;;;;;1.15;0.10;;;;;;;24.31;58.00;102368.38;5033148;28;20032;-67
2022/04/22 04:31:18;;;;;;;0.75;0.45;;;;;;;24.35;58.67;102371.63;5046716;28;20452;-68
2022/04/22 04:33:44;;;;;;;1.42;0.20;;;;;;;24.35;58.12;102374.38;5038628;28;20025;-68
2022/04/22 04:36:10;;;;;;;0.95;0.20;;;;;;;24.37;58.12;102375.09;5032148;28;20072;-67
2022/04/22 04:38:40;;;;;;;2.67;0.85;;;;;;;24.42;57.58;102367.16;5031682;28;20044;-68
2022/04/22 04:41:07;;;;;;;1.02;0.30;;;;;;;24.40;58.25;102374.72;5031643;28;20018;-67
2022/04/22 04:43:34;;;;;;;0.95;0.30;;;;;;;24.40;59.09;102369.22;5031808;28;20079;-67
2022/04/22 04:45:59;;;;;;;0.85;0.20;;;;;;;24.43;58.14;102371.63;5032815;28;20076;-68
2022/04/22 04:48:24;;;;;;;0.28;0.20;;;;;;;24.44;58.35;102370.59;5032746;28;20404;-67
2022/04/22 04:50:51;;;;;;;2.03;0.30;;;;;;;24.47;58.34;102375.72;5032904;28;20109;-67
2022/04/22 04:53:17;;;;;;;0.95;0.20;;;;;;;24.48;57.99;102366.44;5031335;28;20056;-67
2022/04/22 04:55:43;;;;;;;0.70;0.17;;;;;;;24.47;58.12;102371.09;5032958;28;20108;-65
2022/04/22 04:58:09;;;;;;;1.65;0.20;;;;;;;24.51;57.99;102371.59;5033030;28;20025;-67
2022/04/22 05:00:34;;;;;;;1.08;0.35;;;;;;;24.51;58.07;102366.09;5032515;28;20112;-67
2022/04/22 05:02:59;;;;;;;0.98;0.13;;;;;;;24.52;58.14;102362.31;5032814;28;20029;-67
2022/04/22 05:05:25;;;;;;;0.70;0.10;;;;;;;24.53;58.13;102372.28;5032459;28;20030;-67
2022/04/22 05:07:57;;;;;;;0.32;0.20;;;;;;;24.53;58.39;102362.16;5031269;28;20032;-68
2022/04/22 05:10:24;;;;;;;0.70;0.15;;;;;;;24.55;57.81;102362.84;5032386;28;20515;-67
2022/04/22 05:12:50;;;;;;;1.45;0.28;;;;;;;24.55;58.55;102367.47;5032539;28;20100;-67
2022/04/22 05:15:17;;;;;;;0.20;0.10;;;;;;;24.59;58.00;102355.09;5040001;28;20021;-67
2022/04/22 05:17:44;;;;;;;1.05;0.38;;;;;;;24.57;58.67;102354.41;5038357;28;20026;-67
2022/04/22 05:20:12;;;;;;;1.13;0.20;;;;;;;24.64;58.11;102360.91;5032430;28;20368;-67
2022/04/22 05:22:38;;;;;;;1.05;0.30;;;;;;;24.62;58.22;102362.13;5032195;28;20026;-67
2022/04/22 05:25:05;;;;;;;0.70;0.28;;;;;;;24.58;58.80;102354.22;5032511;28;20036;-65
2022/04/22 05:27:31;;;;;;;0.47;0.32;;;;;;;24.63;58.58;102364.69;5032528;28;20037;-64
2022/04/22 05:33:01;;;;;;;1.38;0.40;;;;;;;24.60;57.95;102363.16;4971221;28;20547;-67
2022/04/22 05:35:29;;;;;;;2.55;0.30;;;;;;;24.62;58.12;102362.97;4971003;28;20027;-67
2022/04/22 05:37:58;;;;;;;4.38;0.50;;;;;;;24.66;58.14;102363.47;4971124;28;20043;-67
2022/04/22 05:40:28;;;;;;;1.17;0.35;;;;;;;24.67;58.39;102366.03;4970969;28;20037;-67
2022/04/22 05:42:55;;;;;;;1.05;0.20;;;;;;;24.64;59.02;102363.66;4971159;28;20055;-67
2022/04/22 05:45:21;;;;;;;1.92;0.40;;;;;;;24.70;59.01;102357.47;4970790;28;20514;-67
2022/04/22 05:47:46;;;;;;;1.27;0.28;;;;;;;24.68;58.80;102367.75;4970975;28;20034;-67
2022/04/22 05:50:14;;;;;;;1.02;0.40;;;;;;;24.71;58.39;102361.06;4971017;28;20138;-67
2022/04/22 05:52:40;;;;;;;1.10;0.55;;;;;;;24.69;59.38;102364.00;4970777;28;20434;-68
2022/04/22 05:55:10;;;;;;;1.17;0.38;;;;;;;24.69;59.60;102368.59;4985604;28;20350;-67
2022/04/22 05:57:36;;;;;;;1.27;0.20;;;;;;;24.71;58.82;102372.94;4974412;28;20034;-65
2022/04/22 06:00:05;;;;;;;0.63;0.20;;;;;;;24.71;58.23;102370.19;4975020;28;20083;-65
2022/04/22 06:02:31;;;;;;;1.73;0.30;;;;;;;24.71;59.30;102370.19;4974689;28;20027;-67
2022/04/22 06:04:56;;;;;;;1.05;0.20;;;;;;;24.74;58.84;102363.47;5035121;28;20392;-67
2022/04/22 06:07:21;;;;;;;0.47;0.22;;;;;;;24.71;58.55;102364.66;5035682;28;20559;-66
2022/04/22 06:12:31;;;;;;;0.25;0.10;;;;;;;24.73;59.03;102354.34;5035945;28;20039;-68
2022/04/22 06:14:59;;;;;;;1.58;0.20;;;;;;;24.74;58.79;102347.81;5035700;28;20472;-67
2022/04/22 06:17:26;;;;;;;1.67;0.28;;;;;;;24.76;58.20;102359.50;5035523;28;20037;-68
2022/04/22 06:19:52;;;;;;;1.33;0.28;;;;;;;24.79;57.78;102358.28;5035550;28;20036;-67
2022/04/22 06:22:17;;;;;;;0.55;0.47;;;;;;;24.77;58.32;102350.19;5035363;28;20034;-67
2022/04/22 06:24:42;;;;;;;1.20;0.35;;;;;;;24.74;59.35;102361.56;5035844;28;20029;-67
2022/04/22 06:27:09;;;;;;;0.70;0.30;;;;;;;24.79;58.95;102364.63;5035485;28;20025;-67
2022/04/22 06:29:35;;;;;;;0.10;0.08;;;;;;;24.79;58.71;102361.88;5035494;28;20094;-67
2022/04/22 06:32:01;;;;;;;1.20;0.32;;;;;;;24.82;59.19;102368.91;5035329;28;20403;-67
2022/04/22 06:34:27;;;;;;;0.93;0.13;;;;;;;24.82;58.40;102364.25;5033921;28;20021;-68
2022/04/22 06:36:52;;;;;;;1.40;0.20;;;;;;;24.80;58.19;102366.34;5035649;28;20033;-67
2022/04/22 06:39:18;;;;;;;0.22;0.13;;;;;;;24.80;58.38;102368.25;5050188;28;20096;-66
2022/04/22 06:47:11;;;;;;;0.55;0.25;;;;;;;24.78;58.58;102365.66;5035080;28;20079;-68
2022/04/22 06:49:37;;;;;;;1.27;0.28;;;;;;;24.83;58.00;102365.97;5034992;28;20025;-67
2022/04/22 06:52:03;;;;;;;0.13;0.13;;;;;;;24.86;58.31;102359.28;5033724;28;20057;-68
2022/04/22 06:54:28;;;;;;;0.43;0.17;;;;;;;24.82;58.09;102355.16;5034851;28;20457;-67
2022/04/22 06:56:54;;;;;;;0.00;0.00;;;;;;;24.84;58.40;102362.19;5035206;28;20025;-65
2022/04/22 06:59:21;;;;;;;1.02;0.30;;;;;;;24.85;58.51;102358.41;5035265;28;20473;-66
2022/04/22 07:01:47;;;;;;;0.15;0.10;;;;;;;24.84;58.68;102353.94;5034657;28;20039;-67
2022/04/22 07:04:14;;;;;;;0.93;0.47;;;;;;;24.87;58.87;102359.09;5033584;28;20104;-67
2022/04/22 07:06:39;;;;;;;1.40;0.20;;;;;;;24.88;58.60;102358.06;5033613;28;20029;-67
2022/04/22 07:09:05;;;;;;;1.60;0.20;;;;;;;24.88;58.73;102357.22;5034790;28;20518;-68
2022/04/22 07:11:31;;;;;;;0.88;0.30;;;;;;;24.87;58.79;102352.75;5034787;28;20045;-67
2022/04/22 07:13:59;;;;;;;1.17;0.30;;;;;;;24.89;59.31;102353.44;5034535;28;20475;-68
2022/04/22 07:16:24;;;;;;;1.25;0.35;;;;;;;24.89;59.78;102354.28;5035615;28;20425;-66
2022/04/22 07:18:51;;;;;;;0.63;0.20;;;;;;;24.88;58.58;102357.22;5046277;28;20029;-68
2022/04/22 07:21:17;;;;;;;1.60;0.35;;;;;;;24.92;58.25;102360.47;5034322;28;20029;-67
2022/04/22 07:23:42;;;;;;;0.90;0.28;;;;;;;24.90;59.07;102355.13;5033113;28;20029;-67
2022/04/22 07:26:09;;;;;;;0.68;0.10;;;;;;;24.89;58.87;102357.03;5034374;28;20036;-70
2022/04/22 07:28:37;;;;;;;0.75;0.20;;;;;;;24.89;59.02;102359.78;5032989;28;20061;-67
2022/04/22 07:31:03;;;;;;;0.47;0.10;;;;;;;24.88;57.93;102357.22;5034537;28;20104;-67
2022/04/22 07:33:29;;;;;;;2.60;0.57;;;;;;;24.89;59.37;102365.28;5034195;28;20108;-67
2022/04/22 07:35:54;;;;;;;2.78;0.30;;;;;;;24.89;59.30;102365.28;5034099;28;20063;-67
2022/04/22 07:38:21;;;;;;;0.73;0.20;;;;;;;24.93;58.42;102371.28;5034000;28;20025;-67
2022/04/22 07:40:50;;;;;;;1.63;0.30;;;;;;;24.96;59.55;102372.81;5033058;28;20044;-67
2022/04/22 07:48:44;;;;;;;0.47;0.20;;;;;;;24.97;58.39;102355.28;5034258;28;20117;-67
2022/04/22 07:51:10;;;;;;;2.08;0.50;;;;;;;24.96;58.49;102359.06;5040117;28;20469;-66
2022/04/22 07:53:35;;;;;;;1.77;0.20;;;;;;;24.94;58.03;102356.50;5032231;28;20452;-67
2022/04/22 07:56:05;;;;;;;1.27;0.30;;;;;;;24.97;58.50;102361.63;5032461;28;20025;-67
2022/04/22 07:58:31;;;;;;;1.20;0.25;;;;;;;24.95;60.03;102360.09;5033864;28;20013;-65
2022/04/22 08:00:57;;;;;;;0.30;0.20;;;;;;;24.93;59.15;102354.78;5033678;28;20465;-67
2022/04/22 08:03:23;;;;;;;2.15;0.63;;;;;;;24.93;58.98;102360.28;5033507;28;20036;-67
2022/04/22 08:05:48;;;;;;;0.73;0.20;;;;;;;25.00;58.64;102368.69;5033492;28;20381;-67
2022/04/22 08:08:13;;;;;;;0.77;0.40;;;;;;;25.00;58.60;102361.28;5033539;28;20021;-67
2022/04/22 08:10:39;;;;;;;0.73;0.28;;;;;;;24.99;58.55;102365.06;5033474;28;20021;-67
2022/04/22 08:13:07;;;;;;;2.22;0.20;;;;;;;25.00;58.09;102365.94;5032256;28;20079;-67
2022/04/22 08:15:34;;;;;;;0.75;0.10;;;;;;;25.00;58.78;102366.78;5033333;28;20033;-67
2022/04/22 08:18:03;;;;;;;0.43;0.13;;;;;;;24.99;59.65;102370.56;5033196;28;20022;-67
2022/04/22 08:20:31;;;;;;;1.30;0.30;;;;;;;24.99;59.42;102373.31;5031910;28;20029;-67
2022/04/22 08:22:57;;;;;;;0.60;0.10;;;;;;;24.99;58.79;102376.06;5031951;28;20025;-67
2022/04/22 08:25:22;;;;;;;0.60;0.20;;;;;;;25.00;58.68;102365.94;5033093;28;20025;-66
2022/04/22 08:27:49;;;;;;;0.20;0.17;;;;;;;25.03;58.54;102371.13;5033412;28;20025;-65
2022/04/22 08:30:14;;;;;;;2.17;0.38;;;;;;;25.00;58.68;102374.19;5033390;28;20025;-66
2022/04/22 08:32:40;;;;;;;1.48;0.20;;;;;;;25.03;58.76;102365.63;5036646;28;20063;-67
2022/04/22 08:35:06;;;;;;;1.13;0.30;;;;;;;25.02;59.19;102369.38;5033231;28;20359;-67
2022/04/22 08:37:31;;;;;;;1.15;0.30;;;;;;;24.99;58.95;102364.19;5031677;28;20488;-67
2022/04/22 08:39:57;;;;;;;0.50;0.20;;;;;;;25.03;58.70;102371.13;5032901;28;20025;-68
2022/04/22 08:42:24;;;;;;;0.98;0.20;;;;;;;24.99;58.97;102364.19;5032725;28;20116;-67
2022/04/22 08:44:51;;;;;;;0.47;0.10;;;;;;;25.03;59.03;102376.63;5032959;28;20049;-67
2022/04/22 08:50:06;;;;;;;0.85;0.20;;;;;;;25.06;58.97;102371.59;5033062;28;20111;-67
2022/04/22 08:52:34;;;;;;;0.20;0.10;;;;;;;25.04;58.97;102372.81;5031307;28;20040;-67
2022/04/22 08:55:02;;;;;;;1.23;0.30;;;;;;;25.03;58.87;102371.97;5031492;28;20036;-67
2022/04/22 08:57:28;;;;;;;0.55;0.30;;;;;;;25.03;59.31;102374.72;5032723;28;20021;-65
2022/04/22 08:59:58;;;;;;;0.20;0.20;;;;;;;25.06;58.55;102382.63;5032945;28;20022;-66
2022/04/22 09:02:24;;;;;;;0.75;0.30;;;;;;;25.06;58.62;102382.63;5031152;28;20480;-68
2022/04/22 09:04:49;;;;;;;3.95;0.40;;;;;;;25.07;58.96;102380.72;5032654;28;20057;-68
2022/04/22 09:07:18;;;;;;;0.85;0.28;;;;;;;25.05;59.06;102380.91;5031426;28;20120;-67
2022/04/22 09:09:49;;;;;;;0.80;0.30;;;;;;;25.06;58.10;102387.25;5032530;28;20026;-66
2022/04/22 09:12:15;;;;;;;1.23;0.17;;;;;;;25.05;59.02;102385.53;5032537;28;20464;-67
2022/04/22 09:14:49;;;;;;;1.20;0.32;;;;;;;25.08;59.50;102385.19;5032551;28;20040;-67
2022/04/22 09:17:16;;;;;;;0.68;0.20;;;;;;;25.06;58.42;102387.25;5039923;28;20021;-67
2022/04/22 09:19:45;;;;;;;1.00;0.30;;;;;;;25.04;58.84;102384.69;5032596;28;20043;-67
2022/04/22 09:22:10;;;;;;;1.48;0.38;;;;;;;25.05;59.49;102377.28;5032355;28;20017;-66
2022/04/22 09:24:46;;;;;;;0.50;0.30;;;;;;;25.03;59.43;102369.22;5031097;28;20134;-67
2022/04/22 09:27:13;;;;;;;0.68;0.30;;;;;;;25.08;58.89;102368.66;5032660;28;20640;-67
2022/04/22 09:29:56;;;;;;;1.73;0.40;;;;;;;25.08;59.61;102374.19;5035617;28;20037;-66
2022/04/22 09:32:29;;;;;;;1.17;0.50;;;;;;;25.11;58.83;102380.16;5039023;28;20021;-65
2022/04/22 09:34:57;;;;;;;0.63;0.17;;;;;;;25.07;59.37;102377.97;5039156;28;20145;-67
2022/04/22 09:42:52;;;;;;;1.05;0.57;;;;;;;25.12;59.07;102359.00;5038785;28;20075;-67
2022/04/22 09:45:18;;;;;;;0.60;0.20;;;;;;;25.14;58.31;102367.94;5037455;28;20025;-68
2022/04/22 09:47:57;;;;;;;1.60;0.25;;;;;;;25.13;58.84;102360.72;5038777;28;20021;-67
2022/04/22 09:50:42;;;;;;;0.30;0.22;;;;;;;25.12;59.32;102359.00;5038646;28;20025;-67
2022/04/22 09:53:09;;;;;;;1.30;0.22;;;;;;;25.09;58.98;102362.13;5037340;28;20131;-66
2022/04/22 09:55:53;;;;;;;1.00;0.43;;;;;;;25.09;58.37;102359.38;5038484;28;20021;-67
2022/04/22 09:58:27;;;;;;;0.70;0.28;;;;;;;25.14;58.66;102356.94;5038523;28;20033;-67
2022/04/22 10:00:58;;;;;;;1.17;0.30;;;;;;;25.12;59.09;102353.50;5044669;28;20029;-66
2022/04/22 10:03:26;;;;;;;0.75;0.50;;;;;;;25.07;59.09;102351.31;5037185;28;20415;-67
2022/04/22 10:05:53;;;;;;;0.90;0.60;;;;;;;25.12;58.85;102351.59;5037268;28;20443;-67
2022/04/22 10:08:20;;;;;;;2.03;0.60;;;;;;;25.12;59.02;102346.09;5038614;28;20026;-67
2022/04/22 10:10:46;;;;;;;0.77;0.30;;;;;;;25.12;58.95;102339.75;5037694;28;20022;-67
2022/04/22 10:13:16;;;;;;;2.15;0.30;;;;;;;25.08;59.53;102342.00;5038532;28;20029;-67
2022/04/22 10:15:42;;;;;;;1.35;0.32;;;;;;;25.14;59.34;102334.91;5038526;28;20052;-67
2022/04/22 10:18:09;;;;;;;1.58;0.20;;;;;;;25.16;58.13;102328.19;5038413;28;20060;-67
2022/04/22 10:20:36;;;;;;;0.40;0.20;;;;;;;25.12;57.50;102334.25;5037113;28;20027;-67
2022/04/22 10:23:02;;;;;;;0.73;0.30;;;;;;;25.13;58.57;102333.19;5037259;28;20041;-67
2022/04/22 10:25:30;;;;;;;1.00;0.20;;;;;;;25.13;58.00;102327.69;5037031;28;20048;-67
2022/04/22 10:27:57;;;;;;;1.17;0.20;;;;;;;25.16;58.03;102330.09;5037077;28;20027;-67
2022/04/22 10:30:24;;;;;;;1.48;0.20;;;;;;;25.13;58.93;102323.06;5036869;28;20416;-66
2022/04/22 10:32:49;;;;;;;0.10;0.00;;;;;;;25.15;58.72;102317.38;5037142;28;20017;-67
2022/04/22 10:35:15;;;;;;;0.63;0.13;;;;;;;25.13;58.65;102322.19;5038397;28;20043;-67
2022/04/22 10:37:43;;;;;;;0.43;0.20;;;;;;;25.17;58.22;102323.53;5038321;28;20034;-67
2022/04/22 10:40:20;;;;;;;0.17;0.10;;;;;;;25.15;58.75;102309.97;5038072;28;20041;-66
2022/04/22 10:42:46;;;;;;;0.35;0.17;;;;;;;25.15;59.02;102303.59;5044181;28;20384;-67
2022/04/22 10:47:56;;;;;;;2.15;0.20;;;;;;;25.17;58.82;102318.03;5035014;28;20036;-67
2022/04/22 10:50:35;;;;;;;0.45;0.15;;;;;;;25.19;59.51;102316.84;5034942;28;20033;-67
2022/04/22 10:53:09;;;;;;;1.50;0.20;;;;;;;25.18;58.61;102306.00;5035024;28;20045;-67
2022/04/22 10:55:40;;;;;;;1.92;0.40;;;;;;;25.16;58.45;102297.06;5033518;28;20032;-67
2022/04/22 10:58:17;;;;;;;0.77;0.10;;;;;;;25.17;59.15;102298.78;5033478;28;20040;-67
2022/04/22 11:00:50;;;;;;;1.55;0.30;;;;;;;25.15;59.11;102309.09;5034892;28;20053;-67
2022/04/22 11:03:31;;;;;;;0.63;0.10;;;;;;;25.18;57.99;102303.22;5034904;28;20034;-64
2022/04/22 11:06:07;;;;;;;0.50;0.20;;;;;;;25.19;59.12;102304.94;5035198;28;20021;-67
2022/04/22 11:08:39;;;;;;;1.10;0.40;;;;;;;25.17;59.06;102307.03;5034896;28;20088;-66
2022/04/22 11:11:04;;;;;;;0.55;0.30;;;;;;;25.19;59.34;102300.31;5034774;28;20026;-67
2022/04/22 11:13:29;;;;;;;0.40;0.20;;;;;;;25.22;58.34;102307.34;5034503;28;20076;-67
2022/04/22 11:16:16;;;;;;;0.40;0.20;;;;;;;25.16;58.11;102300.66;5033385;28;20120;-68
2022/04/22 11:18:44;;;;;;;0.73;0.28;;;;;;;25.15;58.94;102298.94;5033061;28;20120;-67
2022/04/22 11:21:17;;;;;;;0.38;0.15;;;;;;;25.17;59.88;102301.53;5034463;28;20025;-67
2022/04/22 11:23:46;;;;;;;0.30;0.10;;;;;;;25.20;58.31;102290.19;5042520;28;20057;-67
2022/04/22 11:26:16;;;;;;;1.35;0.40;;;;;;;25.20;58.58;102284.66;5037636;28;20036;-67
2022/04/22 11:28:45;;;;;;;0.95;0.40;;;;;;;25.20;58.93;102290.19;5034394;28;20471;-67
2022/04/22 11:31:13;;;;;;;1.20;0.20;;;;;;;25.22;58.84;102288.09;5034337;28;20033;-67
2022/04/22 11:33:59;;;;;;;1.13;0.30;;;;;;;25.22;59.24;102282.59;5034875;28;20021;-65
2022/04/22 11:36:25;;;;;;;0.77;0.40;;;;;;;25.22;58.46;102285.34;5033218;28;20032;-66
2022/04/22 11:38:52;;;;;;;1.10;0.30;;;;;;;25.19;59.22;102282.94;5034215;28;20029;-67
2022/04/22 11:41:18;;;;;;;0.63;0.32;;;;;;;25.21;58.05;102283.63;5033906;28;20032;-67
2022/04/22 11:43:44;;;;;;;2.30;0.32;;;;;;;25.23;59.08;102278.78;5032873;28;20161;-66
2022/04/22 11:46:12;;;;;;;1.45;0.40;;;;;;;25.21;59.38;102280.03;5032748;28;20029;-67
2022/04/22 11:48:45;;;;;;;1.25;0.40;;;;;;;25.21;58.16;102278.13;5031360;28;20128;-66
2022/04/22 11:51:10;;;;;;;0.93;0.30;;;;;;;25.24;58.91;102277.75;5034027;28;20164;-67
2022/04/22 11:53:35;;;;;;;0.57;0.25;;;;;;;25.24;58.95;102275.00;5033189;28;20161;-67
2022/04/22 11:56:02;;;;;;;0.30;0.20;;;;;;;25.24;58.60;102266.75;5033876;28;20028;-68
2022/04/22 11:58:27;;;;;;;2.17;0.30;;;;;;;25.24;60.00;102258.50;5033498;28;20021;-67
2022/04/22 12:06:23;;;;;;;0.20;0.20;;;;;;;25.24;58.96;102261.25;5033814;28;20491;-65
2022/04/22 12:08:57;;;;;;;1.33;0.40;;;;;;;25.23;59.46;102258.69;5033815;28;20029;-67
2022/04/22 12:11:23;;;;;;;;;;;;;;;25.23;59.07;102267.78;5032549;28;20029;-67
2022/04/22 12:13:50;;;;;;;1.40;0.47;;;;;;;25.24;59.79;102258.50;5032219;28;20372;-67
2022/04/22 12:16:24;;;;;;;0.85;0.20;;;;;;;25.29;58.86;102252.41;5033294;28;20048;-67
2022/04/22 12:18:51;;;;;;;2.50;0.63;;;;;;;25.27;59.01;102252.59;5033366;28;20029;-66